createdAt,value
2017-11-28T00:00:53.608Z,3.10
2017-11-28T00:03:21.928Z,3.00
2017-11-28T00:05:51.012Z,3.10
2017-11-28T00:08:19.471Z,2.90
2017-11-28T00:10:47.459Z,2.40
2017-11-28T00:13:16.087Z,2.90
2017-11-28T00:15:43.771Z,2.50
2017-11-28T00:18:11.240Z,2.30
2017-11-28T00:20:39.271Z,2.37
2017-11-28T00:23:07.788Z,2.50
2017-11-28T00:25:35.779Z,2.93
2017-11-28T00:28:04.572Z,2.53
2017-11-28T00:30:33.333Z,2.67
2017-11-28T00:33:01.324Z,3.20
2017-11-28T00:35:30.121Z,2.57
2017-11-28T00:37:58.544Z,2.77
2017-11-28T00:40:26.871Z,2.67
2017-11-28T00:42:55.693Z,2.50
2017-11-28T00:45:23.350Z,2.60
2017-11-28T00:47:50.823Z,2.43
2017-11-28T00:50:18.522Z,2.40
2017-11-28T00:52:46.183Z,3.03
2017-11-28T00:55:13.849Z,2.60
2017-11-28T00:57:42.198Z,2.50
2017-11-28T01:00:10.197Z,2.60
2017-11-28T01:02:38.184Z,3.17
2017-11-28T01:05:07.307Z,3.00
2017-11-28T01:07:34.971Z,2.87
2017-11-28T01:10:02.956Z,3.00
2017-11-28T01:12:30.860Z,2.93
2017-11-28T01:14:58.853Z,3.20
2017-11-28T01:17:26.512Z,3.10
2017-11-28T01:19:54.216Z,3.73
2017-11-28T01:22:22.912Z,3.13
2017-11-28T01:24:50.574Z,3.57
2017-11-28T01:27:18.276Z,3.10
2017-11-28T01:29:47.359Z,2.93
2017-11-28T01:32:16.827Z,3.23
2017-11-28T01:34:44.535Z,3.70
2017-11-28T01:37:12.957Z,3.07
2017-11-28T01:39:40.628Z,3.07
2017-11-28T01:42:08.317Z,2.80
2017-11-28T01:44:36.743Z,2.67
2017-11-28T01:47:04.411Z,2.73
2017-11-28T01:49:32.297Z,2.67
2017-11-28T01:51:59.953Z,3.00
2017-11-28T01:54:28.299Z,3.17
2017-11-28T01:56:56.005Z,2.73
2017-11-28T01:59:23.663Z,2.80
2017-11-28T02:01:52.560Z,3.10
2017-11-28T02:04:20.242Z,2.77
2017-11-28T02:06:49.208Z,2.50
2017-11-28T02:09:16.871Z,2.33
2017-11-28T02:11:44.560Z,2.47
2017-11-28T02:14:12.988Z,2.60
2017-11-28T02:16:40.464Z,2.70
2017-11-28T02:19:08.174Z,2.70
2017-11-28T02:21:35.647Z,2.40
2017-11-28T02:24:03.511Z,2.70
2017-11-28T02:26:31.228Z,2.93
2017-11-28T02:28:59.600Z,2.93
2017-11-28T02:31:27.068Z,2.60
2017-11-28T02:33:55.537Z,2.73
2017-11-28T02:36:23.401Z,3.00
2017-11-28T02:38:51.267Z,2.67
2017-11-28T02:41:20.768Z,2.43
2017-11-28T02:43:48.629Z,2.03
2017-11-28T02:46:16.495Z,2.03
2017-11-28T02:48:44.189Z,1.97
2017-11-28T02:51:18.495Z,1.57
2017-11-28T02:53:46.367Z,1.80
2017-11-28T02:56:14.987Z,1.97
2017-11-28T02:58:47.129Z,2.00
2017-11-28T03:01:22.204Z,1.90
2017-11-28T03:03:50.093Z,2.50
2017-11-28T03:06:17.956Z,2.07
2017-11-28T03:08:45.809Z,2.33
2017-11-28T03:11:13.738Z,1.90
2017-11-28T03:13:41.390Z,2.33
2017-11-28T03:16:19.787Z,2.40
2017-11-28T03:18:48.993Z,2.03
2017-11-28T03:21:22.613Z,2.10
2017-11-28T03:24:02.723Z,2.10
2017-11-28T03:26:30.387Z,1.87
2017-11-28T03:29:00.017Z,1.90
2017-11-28T03:31:31.383Z,2.07
2017-11-28T03:34:03.547Z,2.40
2017-11-28T03:36:31.208Z,2.20
2017-11-28T03:38:59.731Z,2.20
2017-11-28T03:41:27.660Z,2.03
2017-11-28T03:43:55.127Z,2.20
2017-11-28T03:46:22.643Z,2.20
2017-11-28T03:48:51.099Z,2.10
2017-11-28T03:51:18.777Z,2.03
2017-11-28T03:53:47.232Z,2.00
2017-11-28T03:56:14.703Z,2.10
2017-11-28T03:58:42.368Z,2.30
2017-11-28T04:01:10.848Z,2.57
2017-11-28T04:03:38.693Z,2.43
2017-11-28T04:06:06.397Z,2.30
2017-11-28T04:08:35.029Z,2.40
2017-11-28T04:11:02.684Z,2.40
2017-11-28T04:13:30.391Z,2.37
2017-11-28T04:15:59.782Z,2.27
2017-11-28T04:18:27.553Z,2.43
2017-11-28T04:20:56.008Z,2.10
2017-11-28T04:23:23.677Z,1.80
2017-11-28T04:25:51.333Z,2.10
2017-11-28T04:28:19.036Z,1.83
2017-11-28T04:30:46.687Z,1.97
2017-11-28T04:33:14.365Z,2.00
2017-11-28T04:35:42.062Z,2.20
2017-11-28T04:38:09.719Z,1.80
2017-11-28T04:40:37.388Z,2.07
2017-11-28T04:43:05.072Z,2.13
2017-11-28T04:45:32.730Z,2.03
2017-11-28T04:48:00.400Z,1.97
2017-11-28T04:50:29.788Z,2.10
2017-11-28T04:52:57.604Z,2.10
2017-11-28T04:55:25.258Z,2.17
2017-11-28T04:57:52.946Z,2.20
2017-11-28T05:00:20.611Z,2.43
2017-11-28T05:02:48.268Z,2.70
2017-11-28T05:05:15.963Z,2.43
2017-11-28T05:07:43.619Z,3.27
2017-11-28T05:10:11.276Z,3.60
2017-11-28T05:12:39.168Z,3.40
2017-11-28T05:15:07.797Z,3.30
2017-11-28T05:17:35.455Z,2.77
2017-11-28T05:20:03.192Z,2.83
2017-11-28T05:22:30.849Z,2.50
2017-11-28T05:24:59.068Z,2.37
2017-11-28T05:27:26.761Z,2.60
2017-11-28T05:29:54.625Z,2.17
2017-11-28T05:32:22.291Z,2.07
2017-11-28T05:34:50.757Z,2.10
2017-11-28T05:37:18.614Z,2.17
2017-11-28T05:39:46.276Z,2.17
2017-11-28T05:42:13.960Z,2.30
2017-11-28T05:44:42.391Z,2.57
2017-11-28T05:47:10.056Z,2.83
2017-11-28T05:49:37.755Z,2.70
2017-11-28T05:52:05.414Z,2.37
2017-11-28T05:54:33.847Z,2.40
2017-11-28T05:57:01.566Z,2.50
2017-11-28T05:59:30.188Z,2.43
2017-11-28T06:01:58.423Z,2.53
2017-11-28T06:04:26.880Z,2.50
2017-11-28T06:06:54.548Z,2.67
2017-11-28T06:09:22.208Z,2.53
2017-11-28T06:11:50.843Z,2.80
2017-11-28T06:14:18.503Z,2.87
2017-11-28T06:16:46.165Z,2.80
2017-11-28T06:19:14.055Z,2.40
2017-11-28T06:21:41.533Z,3.07
2017-11-28T06:24:09.003Z,3.63
2017-11-28T06:26:37.461Z,3.67
2017-11-28T06:29:05.124Z,4.13
2017-11-28T06:31:32.788Z,3.90
2017-11-28T06:34:00.491Z,4.03
2017-11-28T06:36:28.795Z,4.13
2017-11-28T06:38:56.455Z,4.20
2017-11-28T06:41:24.144Z,4.57
2017-11-28T06:43:54.515Z,4.33
2017-11-28T06:46:22.173Z,4.27
2017-11-28T06:48:49.867Z,4.57
2017-11-28T06:51:17.527Z,4.47
2017-11-28T06:53:45.196Z,3.80
2017-11-28T06:56:12.884Z,4.13
2017-11-28T06:58:40.543Z,4.57
2017-11-28T07:01:08.201Z,4.37
2017-11-28T07:03:38.825Z,4.70
2017-11-28T07:06:06.694Z,4.50
2017-11-28T07:08:34.359Z,4.30
2017-11-28T07:11:02.054Z,4.40
2017-11-28T07:13:30.477Z,4.77
2017-11-28T07:15:58.821Z,4.40
2017-11-28T07:18:26.497Z,4.00
2017-11-28T07:20:54.159Z,4.30
2017-11-28T07:23:21.841Z,4.10
2017-11-28T07:25:49.697Z,4.03
2017-11-28T07:28:17.399Z,4.13
2017-11-28T07:30:45.065Z,3.77
2017-11-28T07:33:13.493Z,3.77
2017-11-28T07:35:41.225Z,4.20
2017-11-28T07:38:09.084Z,3.83
2017-11-28T07:40:37.511Z,4.33
2017-11-28T07:43:05.297Z,3.80
2017-11-28T07:45:32.950Z,4.00
2017-11-28T07:48:00.610Z,4.03
2017-11-28T07:50:28.319Z,3.77
2017-11-28T07:52:55.980Z,3.90
2017-11-28T07:55:23.840Z,3.83
2017-11-28T07:57:51.624Z,3.30
2017-11-28T08:00:19.285Z,3.70
2017-11-28T08:02:46.944Z,3.43
2017-11-28T08:05:14.645Z,3.37
2017-11-28T08:07:43.077Z,3.73
2017-11-28T08:10:10.936Z,3.53
2017-11-28T08:12:38.618Z,3.57
2017-11-28T08:15:06.307Z,3.30
2017-11-28T08:17:34.740Z,3.23
2017-11-28T08:20:02.403Z,3.10
2017-11-28T08:22:29.923Z,2.93
2017-11-28T08:24:58.502Z,3.47
2017-11-28T08:27:26.737Z,3.80
2017-11-28T08:29:54.446Z,4.10
2017-11-28T08:32:21.925Z,3.60
2017-11-28T08:34:49.600Z,3.67
2017-11-28T08:37:17.096Z,4.13
2017-11-28T08:39:44.564Z,4.00
2017-11-28T08:42:12.798Z,3.53
2017-11-28T08:44:40.320Z,4.10
2017-11-28T08:47:07.788Z,3.70
2017-11-28T08:49:35.263Z,4.07
2017-11-28T08:52:02.993Z,3.60
2017-11-28T08:54:30.649Z,3.83
2017-11-28T08:56:58.572Z,3.93
2017-11-28T08:59:26.261Z,3.90
2017-11-28T09:01:54.692Z,3.27
2017-11-28T09:04:22.352Z,3.00
2017-11-28T09:06:50.049Z,3.53
2017-11-28T09:09:17.912Z,2.93
2017-11-28T09:11:45.568Z,3.00
2017-11-28T09:14:13.252Z,3.23
2017-11-28T09:16:41.675Z,2.73
2017-11-28T09:19:09.348Z,3.23
2017-11-28T09:21:37.023Z,3.03
2017-11-28T09:24:04.727Z,3.37
2017-11-28T09:26:32.398Z,3.70
2017-11-28T09:29:00.059Z,3.50
2017-11-28T09:31:27.798Z,3.60
2017-11-28T09:33:56.216Z,3.47
2017-11-28T09:36:23.929Z,4.00
2017-11-28T09:38:52.357Z,3.60
2017-11-28T09:41:20.017Z,4.37
2017-11-28T09:43:47.721Z,4.30
2017-11-28T09:46:15.380Z,3.77
2017-11-28T09:48:43.049Z,3.87
2017-11-28T09:51:10.745Z,3.37
2017-11-28T09:53:39.078Z,2.90
2017-11-28T09:56:06.940Z,3.30
2017-11-28T09:58:35.295Z,3.23
2017-11-28T10:01:02.967Z,3.53
2017-11-28T10:03:30.636Z,3.33
2017-11-28T10:05:59.216Z,4.00
2017-11-28T10:08:26.880Z,4.10
2017-11-28T10:10:55.209Z,3.70
2017-11-28T10:13:22.916Z,3.50
2017-11-28T10:15:50.780Z,3.17
2017-11-28T10:18:18.445Z,2.97
2017-11-28T10:20:46.473Z,3.30
2017-11-28T10:23:14.133Z,3.13
2017-11-28T10:25:41.797Z,3.20
2017-11-28T10:28:09.481Z,3.17
2017-11-28T10:30:37.145Z,3.77
2017-11-28T10:33:04.849Z,4.10
2017-11-28T10:35:33.270Z,4.57
2017-11-28T10:38:00.945Z,4.43
2017-11-28T10:40:29.252Z,3.83
2017-11-28T10:42:56.720Z,3.33
2017-11-28T10:45:25.475Z,3.47
2017-11-28T10:47:53.170Z,2.93
2017-11-28T10:50:21.799Z,2.17
2017-11-28T10:52:49.788Z,1.90
2017-11-28T10:55:17.568Z,1.90
2017-11-28T10:57:45.244Z,1.70
2017-11-28T11:00:12.904Z,1.70
2017-11-28T11:02:41.695Z,1.73
2017-11-28T11:05:10.125Z,1.83
2017-11-28T11:07:38.444Z,1.73
2017-11-28T11:10:06.911Z,1.70
2017-11-28T11:12:34.775Z,2.20
2017-11-28T11:15:02.440Z,1.60
2017-11-28T11:17:30.471Z,1.43
2017-11-28T11:19:58.484Z,1.50
2017-11-28T11:22:26.342Z,1.20
2017-11-28T11:24:54.359Z,1.53
2017-11-28T11:27:22.361Z,1.40
2017-11-28T11:29:50.219Z,1.27
2017-11-28T11:32:17.923Z,1.40
2017-11-28T11:34:46.351Z,1.30
2017-11-28T11:37:14.016Z,1.30
2017-11-28T11:39:41.896Z,1.30
2017-11-28T11:42:09.562Z,1.40
2017-11-28T11:44:37.566Z,1.73
2017-11-28T11:47:06.021Z,1.70
2017-11-28T11:49:33.680Z,1.57
2017-11-28T11:52:04.340Z,1.93
2017-11-28T11:54:32.053Z,2.40
2017-11-28T11:56:59.924Z,1.60
2017-11-28T11:59:28.477Z,3.00
2017-11-28T12:01:56.499Z,2.77
2017-11-28T12:04:25.272Z,10.87
2017-11-28T12:06:52.938Z,7.83
2017-11-28T12:09:20.812Z,3.90
2017-11-28T12:11:49.062Z,3.53
2017-11-28T12:14:16.536Z,4.97
2017-11-28T12:16:44.323Z,4.90
2017-11-28T12:19:13.089Z,6.67
2017-11-28T12:21:40.754Z,9.00
2017-11-28T12:24:08.454Z,12.20
2017-11-28T12:26:36.592Z,17.80
2017-11-28T12:29:04.849Z,13.30
2017-11-28T12:31:32.537Z,4.17
2017-11-28T12:34:00.781Z,7.83
2017-11-28T12:36:28.772Z,9.23
2017-11-28T12:38:57.052Z,14.17
2017-11-28T12:41:25.817Z,16.30
2017-11-28T12:43:53.689Z,15.90
2017-11-28T12:46:21.924Z,8.27
2017-11-28T12:48:49.920Z,14.97
2017-11-28T12:51:18.250Z,7.33
2017-11-28T12:53:45.944Z,10.27
2017-11-28T12:56:13.613Z,10.73
2017-11-28T12:58:41.275Z,11.47
2017-11-28T13:01:10.056Z,12.63
2017-11-28T13:03:38.054Z,18.97
2017-11-28T13:06:05.760Z,28.77
2017-11-28T13:08:33.756Z,24.77
2017-11-28T13:11:01.427Z,19.70
2017-11-28T13:13:29.288Z,22.37
2017-11-28T13:15:56.964Z,14.17
2017-11-28T13:18:24.839Z,12.23
2017-11-28T13:20:52.742Z,16.43
2017-11-28T13:23:20.743Z,17.70
2017-11-28T13:25:48.936Z,6.73
2017-11-28T13:28:16.638Z,6.17
2017-11-28T13:30:44.827Z,7.33
2017-11-28T13:33:12.308Z,10.13
2017-11-28T13:35:40.328Z,11.10
2017-11-28T13:38:07.991Z,7.97
2017-11-28T13:40:35.688Z,7.30
2017-11-28T13:43:03.350Z,5.50
2017-11-28T13:45:30.824Z,4.53
2017-11-28T13:47:58.563Z,6.37
2017-11-28T13:50:26.229Z,6.43
2017-11-28T13:52:54.228Z,30.40
2017-11-28T13:55:21.920Z,19.70
2017-11-28T13:57:50.243Z,12.87
2017-11-28T14:00:17.906Z,7.80
2017-11-28T14:02:46.462Z,7.33
2017-11-28T14:05:14.452Z,6.20
2017-11-28T14:07:42.316Z,4.50
2017-11-28T14:10:10.011Z,4.27
2017-11-28T14:12:39.097Z,4.27
2017-11-28T14:15:07.231Z,3.37
2017-11-28T14:17:35.091Z,3.47
2017-11-28T14:20:04.373Z,4.27
2017-11-28T14:25:50.959Z,4.43
2017-11-28T14:28:18.918Z,3.97
2017-11-28T14:31:01.451Z,49.97
2017-11-28T14:33:40.547Z,27.67
2017-11-28T14:36:08.596Z,28.67
2017-11-28T14:38:36.077Z,24.27
2017-11-28T14:41:15.514Z,24.53
2017-11-28T14:46:46.786Z,20.40
2017-11-28T14:49:15.036Z,24.07
2017-11-28T14:51:45.272Z,22.17
2017-11-28T14:57:30.323Z,14.27
2017-11-28T15:00:03.739Z,13.90
2017-11-28T15:05:53.860Z,5.43
2017-11-28T15:11:31.838Z,5.37
2017-11-28T15:14:01.024Z,4.60
2017-11-28T15:16:34.492Z,4.70
2017-11-28T15:22:11.136Z,3.65
2017-11-28T15:24:56.332Z,2.30
2017-11-28T15:27:23.824Z,2.83
2017-11-28T15:29:51.302Z,4.60
2017-11-28T15:32:18.972Z,3.53
2017-11-28T15:34:46.656Z,5.83
2017-11-28T15:37:14.316Z,4.87
2017-11-28T15:39:42.003Z,4.53
2017-11-28T15:42:10.428Z,4.20
2017-11-28T15:44:38.090Z,3.70
2017-11-28T15:47:05.783Z,4.30
2017-11-28T15:49:33.462Z,5.60
2017-11-28T15:52:01.308Z,4.13
2017-11-28T15:54:30.021Z,3.80
2017-11-28T15:56:58.769Z,3.70
2017-11-28T15:59:26.425Z,6.47
2017-11-28T16:01:54.435Z,8.30
2017-11-28T16:04:22.861Z,6.13
2017-11-28T16:06:50.547Z,6.83
2017-11-28T16:09:18.553Z,6.80
2017-11-28T16:11:46.549Z,6.60
2017-11-28T16:14:14.248Z,6.57
2017-11-28T16:16:41.900Z,5.33
2017-11-28T16:19:09.765Z,5.13
2017-11-28T16:21:37.448Z,4.40
2017-11-28T16:24:05.912Z,4.77
2017-11-28T16:26:33.572Z,4.93
2017-11-28T16:29:01.564Z,3.97
2017-11-28T16:31:30.716Z,4.70
2017-11-28T16:33:59.336Z,3.83
2017-11-28T16:36:28.643Z,4.30
2017-11-28T16:38:57.095Z,4.00
2017-11-28T16:41:24.757Z,3.87
2017-11-28T16:43:52.754Z,4.07
2017-11-28T16:46:21.408Z,4.90
2017-11-28T16:48:49.068Z,5.57
2017-11-28T16:51:16.727Z,6.70
2017-11-28T16:53:44.433Z,5.30
2017-11-28T16:56:12.087Z,4.10
2017-11-28T16:58:40.079Z,4.50
2017-11-28T17:01:07.769Z,4.37
2017-11-28T17:03:36.294Z,3.70
2017-11-28T17:06:04.001Z,4.03
2017-11-28T17:08:31.685Z,4.10
2017-11-28T17:10:59.756Z,5.20
2017-11-28T17:13:28.926Z,5.07
2017-11-28T17:15:56.592Z,5.73
2017-11-28T17:18:24.065Z,5.90
2017-11-28T17:20:51.571Z,5.60
2017-11-28T17:23:19.378Z,5.00
2017-11-28T17:25:46.848Z,5.20
2017-11-28T17:28:15.312Z,5.23
2017-11-28T17:30:42.971Z,5.83
2017-11-28T17:33:10.840Z,7.07
2017-11-28T17:35:38.869Z,6.23
2017-11-28T17:38:06.530Z,5.40
2017-11-28T17:40:34.517Z,5.93
2017-11-28T17:43:02.429Z,6.00
2017-11-28T17:45:30.855Z,5.63
2017-11-28T17:47:59.168Z,6.40
2017-11-28T17:50:26.877Z,5.80
2017-11-28T17:52:54.684Z,5.23
2017-11-28T17:55:22.348Z,5.20
2017-11-28T17:57:50.371Z,5.23
2017-11-28T18:00:18.031Z,4.60
2017-11-28T18:02:46.020Z,5.40
2017-11-28T18:05:13.711Z,5.07
2017-11-28T18:07:42.141Z,4.77
2017-11-28T18:10:10.138Z,4.40
2017-11-28T18:12:38.039Z,3.90
2017-11-28T18:15:06.460Z,3.67
2017-11-28T18:17:34.120Z,4.20
2017-11-28T18:20:02.146Z,2.70
2017-11-28T18:22:30.569Z,3.47
2017-11-28T18:24:58.912Z,3.60
2017-11-28T18:27:27.369Z,4.00
2017-11-28T18:29:55.355Z,4.80
2017-11-28T18:32:22.831Z,5.23
2017-11-28T18:34:50.856Z,3.97
2017-11-28T18:37:18.327Z,4.40
2017-11-28T18:39:46.589Z,3.73
2017-11-28T18:42:14.938Z,3.43
2017-11-28T18:44:42.797Z,3.00
2017-11-28T18:47:10.783Z,3.40
2017-11-28T18:49:38.551Z,3.30
2017-11-28T18:52:06.217Z,3.37
2017-11-28T18:54:33.876Z,3.83
2017-11-28T18:57:01.891Z,3.73
2017-11-28T18:59:30.222Z,3.87
2017-11-28T19:01:58.926Z,3.53
2017-11-28T19:04:27.684Z,3.10
2017-11-28T19:06:55.342Z,3.97
2017-11-28T19:09:23.033Z,3.67
2017-11-28T19:11:51.797Z,3.50
2017-11-28T19:14:19.672Z,3.97
2017-11-28T19:16:47.368Z,3.93
2017-11-28T19:19:15.369Z,3.80
2017-11-28T19:21:43.028Z,4.10
2017-11-28T19:24:10.733Z,5.13
2017-11-28T19:26:39.168Z,5.13
2017-11-28T19:29:07.159Z,4.87
2017-11-28T19:31:35.179Z,5.03
2017-11-28T19:34:02.841Z,4.60
2017-11-28T19:36:30.606Z,5.30
2017-11-28T19:38:59.151Z,5.00
2017-11-28T19:41:27.582Z,4.97
2017-11-28T19:43:55.244Z,5.40
2017-11-28T19:46:22.771Z,6.27
2017-11-28T19:48:50.771Z,5.30
2017-11-28T19:51:18.450Z,6.10
2017-11-28T19:53:46.169Z,5.83
2017-11-28T19:56:14.601Z,5.83
2017-11-28T19:58:43.028Z,5.97
2017-11-28T20:01:11.308Z,5.30
2017-11-28T20:03:38.969Z,5.87
2017-11-28T20:06:07.033Z,6.10
2017-11-28T20:08:35.248Z,7.10
2017-11-28T20:11:03.044Z,6.63
2017-11-28T20:13:30.697Z,6.20
2017-11-28T20:15:59.370Z,5.80
2017-11-28T20:18:27.028Z,6.07
2017-11-28T20:20:54.635Z,5.90
2017-11-28T20:23:22.736Z,6.80
2017-11-28T20:25:50.476Z,6.23
2017-11-28T20:28:18.792Z,5.80
2017-11-28T20:30:46.934Z,6.20
2017-11-28T20:33:14.604Z,6.47
2017-11-28T20:35:42.266Z,6.00
2017-11-28T20:38:09.965Z,6.13
2017-11-28T20:40:37.643Z,6.90
2017-11-28T20:43:06.507Z,7.20
2017-11-28T20:45:34.175Z,6.77
2017-11-28T20:48:01.836Z,6.73
2017-11-28T20:50:30.379Z,6.97
2017-11-28T20:52:58.149Z,6.80
2017-11-28T20:55:25.808Z,7.43
2017-11-28T20:57:53.519Z,6.90
2017-11-28T21:00:21.944Z,7.47
2017-11-28T21:02:49.608Z,7.60
2017-11-28T21:05:17.294Z,7.90
2017-11-28T21:07:45.676Z,8.00
2017-11-28T21:10:13.704Z,8.00
2017-11-28T21:12:41.371Z,7.97
2017-11-28T21:15:09.397Z,8.33
2017-11-28T21:17:37.444Z,7.57
2017-11-28T21:20:05.783Z,7.80
2017-11-28T21:22:33.633Z,8.33
2017-11-28T21:25:01.313Z,8.07
2017-11-28T21:27:29.554Z,7.77
2017-11-28T21:29:58.203Z,8.30
2017-11-28T21:32:25.887Z,8.20
2017-11-28T21:34:54.649Z,8.57
2017-11-28T21:37:22.361Z,8.47
2017-11-28T21:39:50.354Z,8.13
2017-11-28T21:42:18.023Z,8.20
2017-11-28T21:44:46.047Z,8.50
2017-11-28T21:47:14.201Z,8.93
2017-11-28T21:49:42.632Z,8.50
2017-11-28T21:52:10.865Z,9.23
2017-11-28T21:54:39.828Z,8.20
2017-11-28T21:57:07.829Z,8.17
2017-11-28T21:59:35.857Z,8.50
2017-11-28T22:02:03.858Z,8.80
2017-11-28T22:04:32.280Z,9.70
2017-11-28T22:07:01.107Z,9.90
2017-11-28T22:09:29.533Z,11.07
2017-11-28T22:11:58.214Z,10.17
2017-11-28T22:14:25.879Z,8.83
2017-11-28T22:16:54.401Z,9.17
2017-11-28T22:19:22.270Z,9.20
2017-11-28T22:21:49.951Z,8.47
2017-11-28T22:24:18.204Z,9.63
2017-11-28T22:26:47.565Z,9.23
2017-11-28T22:29:15.295Z,8.50
2017-11-28T22:31:43.753Z,9.07
2017-11-28T22:34:11.780Z,9.20
2017-11-28T22:36:39.448Z,9.13
2017-11-28T22:39:07.117Z,9.20
2017-11-28T22:41:34.812Z,8.83
2017-11-28T22:44:03.575Z,8.77
2017-11-28T22:46:31.578Z,9.83
2017-11-28T22:49:00.904Z,9.57
2017-11-28T22:51:28.583Z,9.87
2017-11-28T22:53:56.599Z,8.90
2017-11-28T22:56:25.397Z,8.93
2017-11-28T22:58:53.824Z,7.93
2017-11-28T23:01:22.153Z,8.00
2017-11-28T23:03:50.183Z,8.27
2017-11-28T23:06:18.180Z,8.17
2017-11-28T23:08:46.939Z,8.37
2017-11-28T23:11:14.705Z,8.77
2017-11-28T23:13:54.193Z,8.90
2017-11-28T23:16:22.313Z,8.40
2017-11-28T23:18:49.973Z,9.63
2017-11-28T23:21:17.847Z,9.40
2017-11-28T23:23:45.530Z,10.40
2017-11-28T23:26:13.967Z,9.87
2017-11-28T23:28:41.668Z,10.07
2017-11-28T23:31:10.100Z,9.93
2017-11-28T23:33:37.968Z,10.50
2017-11-28T23:36:05.666Z,11.97
2017-11-28T23:38:34.096Z,12.33
2017-11-28T23:41:01.767Z,10.47
2017-11-28T23:43:30.960Z,11.37
2017-11-28T23:45:59.140Z,12.10
2017-11-28T23:48:26.947Z,12.73
2017-11-28T23:50:56.309Z,12.83
2017-11-28T23:53:23.983Z,12.00
2017-11-28T23:55:51.980Z,12.17
2017-11-28T23:58:20.259Z,11.77
